sensor_id;sensor_type;location;lat;lon;timestamp;P1;durP1;ratioP1;P2;durP2;ratioP2
13897;SDS011;7019;50.766;4.474;2022-09-27T00:01:16;3.37;;;1.23;;
13897;SDS011;7019;50.766;4.474;2022-09-27T00:03:43;3.33;;;1.07;;
13897;SDS011;7019;50.766;4.474;2022-09-27T00:06:11;6.77;;;2.13;;
13897;SDS011;7019;50.766;4.474;2022-09-27T00:08:41;3.87;;;1.17;;
13897;SDS011;7019;50.766;4.474;2022-09-27T00:11:10;3.83;;;1.07;;
13897;SDS011;7019;50.766;4.474;2022-09-27T00:13:42;3.47;;;1.17;;
13897;SDS011;7019;50.766;4.474;2022-09-27T00:16:11;3.27;;;0.93;;
13897;SDS011;7019;50.766;4.474;2022-09-27T00:18:38;5.43;;;1.40;;
13897;SDS011;7019;50.766;4.474;2022-09-27T00:21:06;8.30;;;2.80;;
13897;SDS011;7019;50.766;4.474;2022-09-27T00:23:35;5.47;;;1.20;;
13897;SDS011;7019;50.766;4.474;2022-09-27T00:26:03;4.67;;;1.20;;
13897;SDS011;7019;50.766;4.474;2022-09-27T00:28:30;4.50;;;0.70;;
13897;SDS011;7019;50.766;4.474;2022-09-27T00:30:57;5.00;;;1.53;;
13897;SDS011;7019;50.766;4.474;2022-09-27T00:33:26;4.23;;;1.07;;
13897;SDS011;7019;50.766;4.474;2022-09-27T00:35:53;4.90;;;1.30;;
13897;SDS011;7019;50.766;4.474;2022-09-27T00:38:21;5.83;;;1.00;;
13897;SDS011;7019;50.766;4.474;2022-09-27T00:40:48;3.50;;;1.03;;
13897;SDS011;7019;50.766;4.474;2022-09-27T00:43:16;2.73;;;0.90;;
13897;SDS011;7019;50.766;4.474;2022-09-27T00:45:45;4.47;;;0.87;;
13897;SDS011;7019;50.766;4.474;2022-09-27T00:48:16;2.53;;;1.00;;
13897;SDS011;7019;50.766;4.474;2022-09-27T00:50:48;3.67;;;1.17;;
13897;SDS011;7019;50.766;4.474;2022-09-27T00:53:17;3.80;;;1.27;;
13897;SDS011;7019;50.766;4.474;2022-09-27T00:55:51;5.80;;;1.10;;
13897;SDS011;7019;50.766;4.474;2022-09-27T00:58:20;3.53;;;1.10;;
13897;SDS011;7019;50.766;4.474;2022-09-27T01:00:51;5.40;;;1.00;;
13897;SDS011;7019;50.766;4.474;2022-09-27T01:03:22;2.73;;;0.70;;
13897;SDS011;7019;50.766;4.474;2022-09-27T01:05:57;4.83;;;0.80;;
13897;SDS011;7019;50.766;4.474;2022-09-27T01:08:25;1.27;;;0.67;;
13897;SDS011;7019;50.766;4.474;2022-09-27T01:10:57;5.57;;;0.80;;
13897;SDS011;7019;50.766;4.474;2022-09-27T01:13:37;5.53;;;1.27;;
13897;SDS011;7019;50.766;4.474;2022-09-27T01:16:10;4.67;;;0.67;;
13897;SDS011;7019;50.766;4.474;2022-09-27T01:18:49;4.50;;;0.97;;
13897;SDS011;7019;50.766;4.474;2022-09-27T01:21:31;2.60;;;1.10;;
13897;SDS011;7019;50.766;4.474;2022-09-27T01:24:13;2.90;;;0.70;;
13897;SDS011;7019;50.766;4.474;2022-09-27T01:27:01;5.07;;;0.90;;
13897;SDS011;7019;50.766;4.474;2022-09-27T01:29:57;3.63;;;0.70;;
13897;SDS011;7019;50.766;4.474;2022-09-27T01:32:40;4.83;;;0.67;;
13897;SDS011;7019;50.766;4.474;2022-09-27T01:35:16;1.00;;;0.57;;
13897;SDS011;7019;50.766;4.474;2022-09-27T01:37:51;3.57;;;0.73;;
13897;SDS011;7019;50.766;4.474;2022-09-27T01:40:27;3.43;;;0.73;;
13897;SDS011;7019;50.766;4.474;2022-09-27T01:43:03;6.13;;;0.70;;
13897;SDS011;7019;50.766;4.474;2022-09-27T01:45:35;3.30;;;0.80;;
13897;SDS011;7019;50.766;4.474;2022-09-27T01:48:06;7.90;;;0.73;;
13897;SDS011;7019;50.766;4.474;2022-09-27T01:50:38;2.07;;;0.63;;
13897;SDS011;7019;50.766;4.474;2022-09-27T01:53:08;2.53;;;0.60;;
13897;SDS011;7019;50.766;4.474;2022-09-27T01:55:40;1.10;;;0.40;;
13897;SDS011;7019;50.766;4.474;2022-09-27T01:58:09;3.93;;;0.60;;
13897;SDS011;7019;50.766;4.474;2022-09-27T02:00:41;0.93;;;0.53;;
13897;SDS011;7019;50.766;4.474;2022-09-27T02:03:12;4.63;;;0.70;;
13897;SDS011;7019;50.766;4.474;2022-09-27T02:05:44;3.23;;;0.70;;
13897;SDS011;7019;50.766;4.474;2022-09-27T02:08:14;5.60;;;0.60;;
13897;SDS011;7019;50.766;4.474;2022-09-27T02:10:46;8.63;;;1.00;;
13897;SDS011;7019;50.766;4.474;2022-09-27T02:13:17;7.03;;;0.90;;
13897;SDS011;7019;50.766;4.474;2022-09-27T02:15:51;2.07;;;0.80;;
13897;SDS011;7019;50.766;4.474;2022-09-27T02:18:24;3.60;;;0.67;;
13897;SDS011;7019;50.766;4.474;2022-09-27T02:20:58;6.90;;;0.70;;
13897;SDS011;7019;50.766;4.474;2022-09-27T02:23:29;1.20;;;0.60;;
13897;SDS011;7019;50.766;4.474;2022-09-27T02:26:02;4.40;;;0.90;;
13897;SDS011;7019;50.766;4.474;2022-09-27T02:28:38;6.97;;;1.50;;
13897;SDS011;7019;50.766;4.474;2022-09-27T02:31:10;3.87;;;1.00;;
13897;SDS011;7019;50.766;4.474;2022-09-27T02:33:39;1.53;;;0.60;;
13897;SDS011;7019;50.766;4.474;2022-09-27T02:36:10;1.87;;;0.60;;
13897;SDS011;7019;50.766;4.474;2022-09-27T02:38:39;5.50;;;0.60;;
13897;SDS011;7019;50.766;4.474;2022-09-27T02:41:11;2.33;;;0.80;;
13897;SDS011;7019;50.766;4.474;2022-09-27T02:43:40;1.77;;;0.60;;
13897;SDS011;7019;50.766;4.474;2022-09-27T02:46:22;3.93;;;1.13;;
13897;SDS011;7019;50.766;4.474;2022-09-27T02:48:59;2.90;;;0.67;;
13897;SDS011;7019;50.766;4.474;2022-09-27T02:51:38;4.27;;;0.80;;
13897;SDS011;7019;50.766;4.474;2022-09-27T02:54:15;3.63;;;0.80;;
13897;SDS011;7019;50.766;4.474;2022-09-27T02:56:52;7.53;;;1.40;;
13897;SDS011;7019;50.766;4.474;2022-09-27T02:59:27;1.40;;;0.50;;
13897;SDS011;7019;50.766;4.474;2022-09-27T03:02:05;2.67;;;0.53;;
13897;SDS011;7019;50.766;4.474;2022-09-27T03:04:38;4.97;;;0.67;;
13897;SDS011;7019;50.766;4.474;2022-09-27T03:07:09;3.70;;;0.60;;
13897;SDS011;7019;50.766;4.474;2022-09-27T03:09:39;4.23;;;0.90;;
13897;SDS011;7019;50.766;4.474;2022-09-27T03:12:08;2.40;;;0.70;;
13897;SDS011;7019;50.766;4.474;2022-09-27T03:14:35;2.47;;;0.77;;
13897;SDS011;7019;50.766;4.474;2022-09-27T03:17:04;2.10;;;0.60;;
13897;SDS011;7019;50.766;4.474;2022-09-27T03:19:31;2.00;;;0.90;;
13897;SDS011;7019;50.766;4.474;2022-09-27T03:21:58;3.07;;;0.90;;
13897;SDS011;7019;50.766;4.474;2022-09-27T03:24:25;3.27;;;0.87;;
13897;SDS011;7019;50.766;4.474;2022-09-27T03:26:52;5.20;;;0.90;;
13897;SDS011;7019;50.766;4.474;2022-09-27T03:29:20;1.77;;;0.87;;
13897;SDS011;7019;50.766;4.474;2022-09-27T03:31:47;2.40;;;0.73;;
13897;SDS011;7019;50.766;4.474;2022-09-27T03:34:15;3.20;;;0.60;;
13897;SDS011;7019;50.766;4.474;2022-09-27T03:36:42;5.00;;;0.80;;
13897;SDS011;7019;50.766;4.474;2022-09-27T03:39:09;4.43;;;0.83;;
13897;SDS011;7019;50.766;4.474;2022-09-27T03:41:36;1.83;;;0.73;;
13897;SDS011;7019;50.766;4.474;2022-09-27T03:44:04;5.40;;;1.03;;
13897;SDS011;7019;50.766;4.474;2022-09-27T03:46:31;4.40;;;1.00;;
13897;SDS011;7019;50.766;4.474;2022-09-27T03:48:58;3.30;;;0.87;;
13897;SDS011;7019;50.766;4.474;2022-09-27T03:51:27;5.17;;;0.97;;
13897;SDS011;7019;50.766;4.474;2022-09-27T03:53:54;4.83;;;1.17;;
13897;SDS011;7019;50.766;4.474;2022-09-27T03:56:21;4.73;;;1.00;;
13897;SDS011;7019;50.766;4.474;2022-09-27T03:58:49;3.00;;;1.03;;
13897;SDS011;7019;50.766;4.474;2022-09-27T04:01:16;4.97;;;1.33;;
13897;SDS011;7019;50.766;4.474;2022-09-27T04:03:43;4.63;;;1.20;;
13897;SDS011;7019;50.766;4.474;2022-09-27T04:06:10;3.57;;;1.30;;
13897;SDS011;7019;50.766;4.474;2022-09-27T04:08:40;2.73;;;1.53;;
13897;SDS011;7019;50.766;4.474;2022-09-27T04:11:07;6.87;;;1.60;;
13897;SDS011;7019;50.766;4.474;2022-09-27T04:13:34;2.77;;;1.80;;
13897;SDS011;7019;50.766;4.474;2022-09-27T04:16:02;3.57;;;1.47;;
13897;SDS011;7019;50.766;4.474;2022-09-27T04:18:29;5.47;;;1.60;;
13897;SDS011;7019;50.766;4.474;2022-09-27T04:20:56;4.67;;;1.47;;
13897;SDS011;7019;50.766;4.474;2022-09-27T04:23:23;3.93;;;1.80;;
13897;SDS011;7019;50.766;4.474;2022-09-27T04:25:53;5.73;;;1.43;;
13897;SDS011;7019;50.766;4.474;2022-09-27T04:28:20;3.47;;;1.53;;
13897;SDS011;7019;50.766;4.474;2022-09-27T04:30:48;6.10;;;1.70;;
13897;SDS011;7019;50.766;4.474;2022-09-27T04:33:15;2.23;;;1.70;;
13897;SDS011;7019;50.766;4.474;2022-09-27T04:35:42;5.57;;;1.83;;
13897;SDS011;7019;50.766;4.474;2022-09-27T04:38:26;4.87;;;2.17;;
13897;SDS011;7019;50.766;4.474;2022-09-27T04:40:55;4.87;;;1.77;;
13897;SDS011;7019;50.766;4.474;2022-09-27T04:43:26;4.80;;;2.50;;
13897;SDS011;7019;50.766;4.474;2022-09-27T04:45:53;4.50;;;2.43;;
13897;SDS011;7019;50.766;4.474;2022-09-27T04:48:20;4.17;;;2.03;;
13897;SDS011;7019;50.766;4.474;2022-09-27T04:50:54;7.40;;;3.13;;
13897;SDS011;7019;50.766;4.474;2022-09-27T04:53:22;5.20;;;2.60;;
13897;SDS011;7019;50.766;4.474;2022-09-27T04:55:50;3.00;;;2.60;;
13897;SDS011;7019;50.766;4.474;2022-09-27T04:58:20;5.77;;;3.40;;
13897;SDS011;7019;50.766;4.474;2022-09-27T05:00:48;3.67;;;3.13;;
13897;SDS011;7019;50.766;4.474;2022-09-27T05:03:17;4.90;;;3.00;;
13897;SDS011;7019;50.766;4.474;2022-09-27T05:05:44;5.00;;;3.40;;
13897;SDS011;7019;50.766;4.474;2022-09-27T05:08:11;3.50;;;2.70;;
13897;SDS011;7019;50.766;4.474;2022-09-27T05:10:38;6.63;;;3.07;;
13897;SDS011;7019;50.766;4.474;2022-09-27T05:13:06;6.17;;;3.73;;
13897;SDS011;7019;50.766;4.474;2022-09-27T05:15:34;7.83;;;3.53;;
13897;SDS011;7019;50.766;4.474;2022-09-27T05:18:01;9.20;;;4.13;;
13897;SDS011;7019;50.766;4.474;2022-09-27T05:20:28;5.27;;;3.23;;
13897;SDS011;7019;50.766;4.474;2022-09-27T05:22:55;5.87;;;4.17;;
13897;SDS011;7019;50.766;4.474;2022-09-27T05:25:22;4.63;;;3.73;;
13897;SDS011;7019;50.766;4.474;2022-09-27T05:27:49;6.93;;;3.93;;
13897;SDS011;7019;50.766;4.474;2022-09-27T05:30:17;4.97;;;3.70;;
13897;SDS011;7019;50.766;4.474;2022-09-27T05:32:45;3.73;;;3.10;;
13897;SDS011;7019;50.766;4.474;2022-09-27T05:35:14;6.27;;;3.20;;
13897;SDS011;7019;50.766;4.474;2022-09-27T05:37:42;8.03;;;4.40;;
13897;SDS011;7019;50.766;4.474;2022-09-27T05:40:09;5.47;;;2.97;;
13897;SDS011;7019;50.766;4.474;2022-09-27T05:42:37;5.43;;;2.83;;
13897;SDS011;7019;50.766;4.474;2022-09-27T05:45:05;9.03;;;3.07;;
13897;SDS011;7019;50.766;4.474;2022-09-27T05:47:32;3.80;;;3.27;;
13897;SDS011;7019;50.766;4.474;2022-09-27T05:50:01;8.80;;;3.70;;
13897;SDS011;7019;50.766;4.474;2022-09-27T05:52:29;7.20;;;3.60;;
13897;SDS011;7019;50.766;4.474;2022-09-27T05:54:56;6.90;;;3.77;;
13897;SDS011;7019;50.766;4.474;2022-09-27T05:57:24;4.53;;;2.93;;
13897;SDS011;7019;50.766;4.474;2022-09-27T05:59:51;4.87;;;2.63;;
13897;SDS011;7019;50.766;4.474;2022-09-27T06:02:18;4.37;;;2.97;;
13897;SDS011;7019;50.766;4.474;2022-09-27T06:04:45;4.17;;;3.77;;
13897;SDS011;7019;50.766;4.474;2022-09-27T06:07:14;4.60;;;3.30;;
13897;SDS011;7019;50.766;4.474;2022-09-27T06:09:41;9.50;;;3.87;;
13897;SDS011;7019;50.766;4.474;2022-09-27T06:12:09;6.23;;;3.87;;
13897;SDS011;7019;50.766;4.474;2022-09-27T06:14:36;7.57;;;4.10;;
13897;SDS011;7019;50.766;4.474;2022-09-27T06:17:03;10.40;;;4.17;;
13897;SDS011;7019;50.766;4.474;2022-09-27T06:19:30;6.23;;;3.73;;
13897;SDS011;7019;50.766;4.474;2022-09-27T06:21:57;5.80;;;3.20;;
13897;SDS011;7019;50.766;4.474;2022-09-27T06:24:26;10.67;;;4.00;;
13897;SDS011;7019;50.766;4.474;2022-09-27T06:26:53;5.93;;;3.47;;
13897;SDS011;7019;50.766;4.474;2022-09-27T06:29:20;6.30;;;3.40;;
13897;SDS011;7019;50.766;4.474;2022-09-27T06:31:47;6.80;;;3.00;;
13897;SDS011;7019;50.766;4.474;2022-09-27T06:34:14;5.70;;;3.30;;
13897;SDS011;7019;50.766;4.474;2022-09-27T06:36:41;4.00;;;3.00;;
13897;SDS011;7019;50.766;4.474;2022-09-27T06:39:08;4.20;;;3.00;;
13897;SDS011;7019;50.766;4.474;2022-09-27T06:41:37;5.30;;;3.00;;
13897;SDS011;7019;50.766;4.474;2022-09-27T06:44:04;5.33;;;3.00;;
13897;SDS011;7019;50.766;4.474;2022-09-27T06:46:31;5.10;;;2.90;;
13897;SDS011;7019;50.766;4.474;2022-09-27T06:48:58;5.30;;;3.40;;
13897;SDS011;7019;50.766;4.474;2022-09-27T06:51:25;5.03;;;3.23;;
13897;SDS011;7019;50.766;4.474;2022-09-27T06:53:52;6.33;;;4.60;;
13897;SDS011;7019;50.766;4.474;2022-09-27T06:56:19;8.10;;;6.53;;
13897;SDS011;7019;50.766;4.474;2022-09-27T06:58:47;5.57;;;4.30;;
13897;SDS011;7019;50.766;4.474;2022-09-27T07:01:32;5.73;;;4.03;;
13897;SDS011;7019;50.766;4.474;2022-09-27T07:04:00;6.87;;;3.77;;
13897;SDS011;7019;50.766;4.474;2022-09-27T07:06:27;4.97;;;3.37;;
13897;SDS011;7019;50.766;4.474;2022-09-27T07:08:55;7.97;;;3.90;;
13897;SDS011;7019;50.766;4.474;2022-09-27T07:11:22;8.33;;;3.80;;
13897;SDS011;7019;50.766;4.474;2022-09-27T07:13:51;6.37;;;3.70;;
13897;SDS011;7019;50.766;4.474;2022-09-27T07:16:20;4.33;;;3.23;;
13897;SDS011;7019;50.766;4.474;2022-09-27T07:18:48;5.93;;;3.83;;
13897;SDS011;7019;50.766;4.474;2022-09-27T07:21:15;11.43;;;3.33;;
13897;SDS011;7019;50.766;4.474;2022-09-27T07:23:43;4.40;;;3.00;;
13897;SDS011;7019;50.766;4.474;2022-09-27T07:26:10;4.93;;;3.00;;
13897;SDS011;7019;50.766;4.474;2022-09-27T07:28:37;5.17;;;3.50;;
13897;SDS011;7019;50.766;4.474;2022-09-27T07:31:07;7.03;;;3.47;;
13897;SDS011;7019;50.766;4.474;2022-09-27T07:33:34;7.63;;;3.40;;
13897;SDS011;7019;50.766;4.474;2022-09-27T07:36:05;5.90;;;3.97;;
13897;SDS011;7019;50.766;4.474;2022-09-27T07:38:33;5.07;;;3.10;;
13897;SDS011;7019;50.766;4.474;2022-09-27T07:41:04;6.70;;;3.60;;
13897;SDS011;7019;50.766;4.474;2022-09-27T07:43:31;7.40;;;3.63;;
13897;SDS011;7019;50.766;4.474;2022-09-27T07:45:59;8.63;;;4.50;;
13897;SDS011;7019;50.766;4.474;2022-09-27T07:48:27;6.03;;;3.70;;
13897;SDS011;7019;50.766;4.474;2022-09-27T07:50:54;5.43;;;3.87;;
13897;SDS011;7019;50.766;4.474;2022-09-27T07:53:21;6.90;;;3.67;;
13897;SDS011;7019;50.766;4.474;2022-09-27T07:55:49;7.10;;;3.67;;
13897;SDS011;7019;50.766;4.474;2022-09-27T07:58:17;6.83;;;3.67;;
13897;SDS011;7019;50.766;4.474;2022-09-27T08:00:45;6.13;;;3.20;;
13897;SDS011;7019;50.766;4.474;2022-09-27T08:03:13;3.93;;;3.30;;
13897;SDS011;7019;50.766;4.474;2022-09-27T08:05:43;6.80;;;2.80;;
13897;SDS011;7019;50.766;4.474;2022-09-27T08:08:12;6.10;;;2.63;;
13897;SDS011;7019;50.766;4.474;2022-09-27T08:10:39;8.33;;;2.83;;
13897;SDS011;7019;50.766;4.474;2022-09-27T08:13:08;8.43;;;2.77;;
13897;SDS011;7019;50.766;4.474;2022-09-27T08:15:36;4.20;;;2.70;;
13897;SDS011;7019;50.766;4.474;2022-09-27T08:18:04;3.77;;;3.00;;
13897;SDS011;7019;50.766;4.474;2022-09-27T08:20:31;6.27;;;3.10;;
13897;SDS011;7019;50.766;4.474;2022-09-27T08:23:00;5.53;;;3.17;;
13897;SDS011;7019;50.766;4.474;2022-09-27T08:25:28;8.07;;;3.40;;
13897;SDS011;7019;50.766;4.474;2022-09-27T08:27:55;6.03;;;3.13;;
13897;SDS011;7019;50.766;4.474;2022-09-27T08:30:23;4.30;;;3.00;;
13897;SDS011;7019;50.766;4.474;2022-09-27T08:32:53;4.27;;;3.07;;
13897;SDS011;7019;50.766;4.474;2022-09-27T08:35:21;6.13;;;2.67;;
13897;SDS011;7019;50.766;4.474;2022-09-27T08:37:52;4.60;;;2.43;;
13897;SDS011;7019;50.766;4.474;2022-09-27T08:40:21;6.07;;;2.30;;
13897;SDS011;7019;50.766;4.474;2022-09-27T08:42:55;7.03;;;2.37;;
13897;SDS011;7019;50.766;4.474;2022-09-27T08:45:27;4.23;;;1.83;;
13897;SDS011;7019;50.766;4.474;2022-09-27T08:47:58;3.93;;;2.30;;
13897;SDS011;7019;50.766;4.474;2022-09-27T08:50:27;4.90;;;2.07;;
13897;SDS011;7019;50.766;4.474;2022-09-27T08:52:59;4.40;;;1.83;;
13897;SDS011;7019;50.766;4.474;2022-09-27T08:55:31;1.47;;;1.30;;
13897;SDS011;7019;50.766;4.474;2022-09-27T08:58:03;4.87;;;1.70;;
13897;SDS011;7019;50.766;4.474;2022-09-27T09:00:37;3.80;;;1.60;;
13897;SDS011;7019;50.766;4.474;2022-09-27T09:03:07;3.93;;;1.50;;
13897;SDS011;7019;50.766;4.474;2022-09-27T09:05:42;2.93;;;1.53;;
13897;SDS011;7019;50.766;4.474;2022-09-27T09:08:21;3.40;;;1.70;;
13897;SDS011;7019;50.766;4.474;2022-09-27T09:11:00;3.57;;;1.50;;
13897;SDS011;7019;50.766;4.474;2022-09-27T09:16:54;3.70;;;1.20;;
13897;SDS011;7019;50.766;4.474;2022-09-27T09:19:45;5.07;;;1.47;;
13897;SDS011;7019;50.766;4.474;2022-09-27T09:22:24;2.50;;;1.47;;
13897;SDS011;7019;50.766;4.474;2022-09-27T09:25:04;2.47;;;0.97;;
13897;SDS011;7019;50.766;4.474;2022-09-27T09:27:45;1.83;;;0.93;;
13897;SDS011;7019;50.766;4.474;2022-09-27T09:30:19;1.40;;;0.90;;
13897;SDS011;7019;50.766;4.474;2022-09-27T09:32:53;2.00;;;0.90;;
13897;SDS011;7019;50.766;4.474;2022-09-27T09:35:35;3.20;;;1.07;;
13897;SDS011;7019;50.766;4.474;2022-09-27T09:38:08;3.87;;;1.17;;
13897;SDS011;7019;50.766;4.474;2022-09-27T09:40:40;1.87;;;0.83;;
13897;SDS011;7019;50.766;4.474;2022-09-27T09:43:14;1.63;;;0.90;;
13897;SDS011;7019;50.766;4.474;2022-09-27T09:45:47;1.33;;;0.70;;
13897;SDS011;7019;50.766;4.474;2022-09-27T09:48:19;2.40;;;0.87;;
13897;SDS011;7019;50.766;4.474;2022-09-27T09:50:52;5.07;;;1.17;;
13897;SDS011;7019;50.766;4.474;2022-09-27T09:53:25;1.70;;;0.60;;
13897;SDS011;7019;50.766;4.474;2022-09-27T09:56:01;1.23;;;0.67;;
13897;SDS011;7019;50.766;4.474;2022-09-27T09:58:34;2.13;;;0.97;;
13897;SDS011;7019;50.766;4.474;2022-09-27T10:01:10;2.60;;;0.80;;
13897;SDS011;7019;50.766;4.474;2022-09-27T10:03:42;2.20;;;0.73;;
13897;SDS011;7019;50.766;4.474;2022-09-27T10:06:10;3.73;;;1.73;;
13897;SDS011;7019;50.766;4.474;2022-09-27T10:08:38;4.30;;;1.17;;
13897;SDS011;7019;50.766;4.474;2022-09-27T10:11:05;4.43;;;1.20;;
13897;SDS011;7019;50.766;4.474;2022-09-27T10:13:40;2.70;;;1.20;;
13897;SDS011;7019;50.766;4.474;2022-09-27T10:16:08;2.17;;;1.30;;
13897;SDS011;7019;50.766;4.474;2022-09-27T10:18:38;8.10;;;1.70;;
13897;SDS011;7019;50.766;4.474;2022-09-27T10:21:09;3.37;;;1.47;;
13897;SDS011;7019;50.766;4.474;2022-09-27T10:26:28;5.57;;;1.20;;
13897;SDS011;7019;50.766;4.474;2022-09-27T10:28:58;4.90;;;1.20;;
13897;SDS011;7019;50.766;4.474;2022-09-27T10:31:49;2.93;;;1.40;;
13897;SDS011;7019;50.766;4.474;2022-09-27T10:34:20;4.53;;;1.50;;
13897;SDS011;7019;50.766;4.474;2022-09-27T10:37:14;5.93;;;1.97;;
13897;SDS011;7019;50.766;4.474;2022-09-27T10:39:43;5.27;;;1.43;;
13897;SDS011;7019;50.766;4.474;2022-09-27T10:42:21;5.47;;;1.83;;
13897;SDS011;7019;50.766;4.474;2022-09-27T10:44:57;6.60;;;1.60;;
13897;SDS011;7019;50.766;4.474;2022-09-27T10:47:44;7.53;;;1.53;;
13897;SDS011;7019;50.766;4.474;2022-09-27T10:50:14;3.77;;;1.50;;
13897;SDS011;7019;50.766;4.474;2022-09-27T10:52:46;5.93;;;1.40;;
13897;SDS011;7019;50.766;4.474;2022-09-27T10:55:20;5.10;;;1.77;;
13897;SDS011;7019;50.766;4.474;2022-09-27T10:57:49;6.90;;;1.47;;
13897;SDS011;7019;50.766;4.474;2022-09-27T11:00:21;4.63;;;1.93;;
13897;SDS011;7019;50.766;4.474;2022-09-27T11:02:50;6.43;;;2.00;;
13897;SDS011;7019;50.766;4.474;2022-09-27T11:05:28;5.77;;;1.60;;
13897;SDS011;7019;50.766;4.474;2022-09-27T11:07:59;6.57;;;1.70;;
13897;SDS011;7019;50.766;4.474;2022-09-27T11:10:29;5.43;;;1.90;;
13897;SDS011;7019;50.766;4.474;2022-09-27T11:13:06;5.50;;;2.27;;
13897;SDS011;7019;50.766;4.474;2022-09-27T11:15:42;6.17;;;2.03;;
13897;SDS011;7019;50.766;4.474;2022-09-27T11:18:20;4.80;;;2.27;;
13897;SDS011;7019;50.766;4.474;2022-09-27T11:20:57;6.13;;;1.93;;
13897;SDS011;7019;50.766;4.474;2022-09-27T11:23:34;4.63;;;1.50;;
13897;SDS011;7019;50.766;4.474;2022-09-27T11:26:25;3.77;;;1.30;;
13897;SDS011;7019;50.766;4.474;2022-09-27T11:29:05;2.37;;;1.03;;
13897;SDS011;7019;50.766;4.474;2022-09-27T11:31:48;4.50;;;1.10;;
13897;SDS011;7019;50.766;4.474;2022-09-27T11:34:46;2.60;;;0.70;;
13897;SDS011;7019;50.766;4.474;2022-09-27T11:37:25;5.63;;;0.83;;
13897;SDS011;7019;50.766;4.474;2022-09-27T11:40:00;3.13;;;0.83;;
13897;SDS011;7019;50.766;4.474;2022-09-27T11:42:51;2.53;;;0.50;;
13897;SDS011;7019;50.766;4.474;2022-09-27T11:45:39;5.53;;;0.70;;
13897;SDS011;7019;50.766;4.474;2022-09-27T11:48:25;2.93;;;0.73;;
13897;SDS011;7019;50.766;4.474;2022-09-27T11:51:12;1.23;;;0.50;;
13897;SDS011;7019;50.766;4.474;2022-09-27T11:53:57;2.10;;;0.40;;
13897;SDS011;7019;50.766;4.474;2022-09-27T11:56:40;1.50;;;0.50;;
13897;SDS011;7019;50.766;4.474;2022-09-27T11:59:21;2.83;;;0.50;;
13897;SDS011;7019;50.766;4.474;2022-09-27T12:02:14;3.00;;;0.50;;
13897;SDS011;7019;50.766;4.474;2022-09-27T12:05:06;2.17;;;0.23;;
13897;SDS011;7019;50.766;4.474;2022-09-27T12:07:48;2.00;;;0.30;;
13897;SDS011;7019;50.766;4.474;2022-09-27T12:10:25;2.37;;;0.50;;
13897;SDS011;7019;50.766;4.474;2022-09-27T12:12:53;2.80;;;0.33;;
13897;SDS011;7019;50.766;4.474;2022-09-27T12:15:24;2.90;;;0.50;;
13897;SDS011;7019;50.766;4.474;2022-09-27T12:17:58;4.53;;;0.57;;
13897;SDS011;7019;50.766;4.474;2022-09-27T12:20:33;1.93;;;0.53;;
13897;SDS011;7019;50.766;4.474;2022-09-27T12:23:02;4.00;;;0.40;;
13897;SDS011;7019;50.766;4.474;2022-09-27T12:25:34;1.27;;;0.57;;
13897;SDS011;7019;50.766;4.474;2022-09-27T12:28:06;2.30;;;0.50;;
13897;SDS011;7019;50.766;4.474;2022-09-27T12:30:39;1.40;;;0.40;;
13897;SDS011;7019;50.766;4.474;2022-09-27T12:33:15;1.90;;;0.43;;
13897;SDS011;7019;50.766;4.474;2022-09-27T12:35:50;3.63;;;0.60;;
13897;SDS011;7019;50.766;4.474;2022-09-27T12:38:21;2.77;;;0.50;;
13897;SDS011;7019;50.766;4.474;2022-09-27T12:41:03;3.57;;;0.60;;
13897;SDS011;7019;50.766;4.474;2022-09-27T12:43:32;3.23;;;0.43;;
13897;SDS011;7019;50.766;4.474;2022-09-27T12:46:03;1.70;;;0.57;;
13897;SDS011;7019;50.766;4.474;2022-09-27T12:48:37;2.90;;;0.70;;
13897;SDS011;7019;50.766;4.474;2022-09-27T12:51:11;1.17;;;0.50;;
13897;SDS011;7019;50.766;4.474;2022-09-27T12:53:46;2.43;;;0.90;;
13897;SDS011;7019;50.766;4.474;2022-09-27T12:56:31;3.17;;;0.47;;
13897;SDS011;7019;50.766;4.474;2022-09-27T12:59:20;3.07;;;0.70;;
13897;SDS011;7019;50.766;4.474;2022-09-27T13:02:15;3.77;;;0.80;;
13897;SDS011;7019;50.766;4.474;2022-09-27T13:05:35;4.93;;;0.80;;
13897;SDS011;7019;50.766;4.474;2022-09-27T13:08:29;5.73;;;1.07;;
13897;SDS011;7019;50.766;4.474;2022-09-27T13:11:07;3.80;;;1.30;;
13897;SDS011;7019;50.766;4.474;2022-09-27T13:13:41;2.93;;;1.17;;
13897;SDS011;7019;50.766;4.474;2022-09-27T13:16:08;2.73;;;1.03;;
13897;SDS011;7019;50.766;4.474;2022-09-27T13:18:49;3.83;;;1.40;;
13897;SDS011;7019;50.766;4.474;2022-09-27T13:27:37;3.90;;;1.40;;
13897;SDS011;7019;50.766;4.474;2022-09-27T13:44:38;2.83;;;0.80;;
13897;SDS011;7019;50.766;4.474;2022-09-27T13:47:25;3.47;;;0.53;;
13897;SDS011;7019;50.766;4.474;2022-09-27T13:49:57;2.03;;;0.50;;
13897;SDS011;7019;50.766;4.474;2022-09-27T13:52:38;1.23;;;0.57;;
13897;SDS011;7019;50.766;4.474;2022-09-27T13:58:06;2.37;;;0.70;;
13897;SDS011;7019;50.766;4.474;2022-09-27T14:00:43;1.83;;;0.60;;
13897;SDS011;7019;50.766;4.474;2022-09-27T14:03:14;3.23;;;1.00;;
13897;SDS011;7019;50.766;4.474;2022-09-27T14:05:45;2.57;;;0.73;;
13897;SDS011;7019;50.766;4.474;2022-09-27T14:08:19;1.97;;;1.00;;
13897;SDS011;7019;50.766;4.474;2022-09-27T14:10:52;2.70;;;1.10;;
13897;SDS011;7019;50.766;4.474;2022-09-27T14:13:21;4.40;;;1.10;;
13897;SDS011;7019;50.766;4.474;2022-09-27T14:15:50;3.20;;;1.13;;
13897;SDS011;7019;50.766;4.474;2022-09-27T14:18:19;3.07;;;1.40;;
13897;SDS011;7019;50.766;4.474;2022-09-27T14:20:48;5.87;;;1.33;;
13897;SDS011;7019;50.766;4.474;2022-09-27T14:23:19;3.90;;;1.50;;
13897;SDS011;7019;50.766;4.474;2022-09-27T14:25:49;3.57;;;1.33;;
13897;SDS011;7019;50.766;4.474;2022-09-27T14:28:18;9.57;;;1.30;;
13897;SDS011;7019;50.766;4.474;2022-09-27T14:31:02;9.00;;;1.90;;
13897;SDS011;7019;50.766;4.474;2022-09-27T14:33:31;3.33;;;1.33;;
13897;SDS011;7019;50.766;4.474;2022-09-27T14:36:00;5.27;;;1.23;;
13897;SDS011;7019;50.766;4.474;2022-09-27T14:38:44;6.10;;;1.50;;
13897;SDS011;7019;50.766;4.474;2022-09-27T14:41:12;3.40;;;1.57;;
13897;SDS011;7019;50.766;4.474;2022-09-27T14:43:41;3.20;;;1.33;;
13897;SDS011;7019;50.766;4.474;2022-09-27T14:46:24;7.30;;;1.70;;
13897;SDS011;7019;50.766;4.474;2022-09-27T14:48:52;7.93;;;1.57;;
13897;SDS011;7019;50.766;4.474;2022-09-27T14:51:21;4.70;;;1.60;;
13897;SDS011;7019;50.766;4.474;2022-09-27T14:53:53;7.47;;;1.60;;
13897;SDS011;7019;50.766;4.474;2022-09-27T14:56:24;5.90;;;1.80;;
13897;SDS011;7019;50.766;4.474;2022-09-27T14:58:55;7.10;;;2.07;;
13897;SDS011;7019;50.766;4.474;2022-09-27T15:01:28;9.13;;;2.17;;
13897;SDS011;7019;50.766;4.474;2022-09-27T15:03:56;4.17;;;1.47;;
13897;SDS011;7019;50.766;4.474;2022-09-27T15:06:29;6.10;;;1.60;;
13897;SDS011;7019;50.766;4.474;2022-09-27T15:08:56;4.40;;;1.23;;
13897;SDS011;7019;50.766;4.474;2022-09-27T15:11:25;3.80;;;1.00;;
13897;SDS011;7019;50.766;4.474;2022-09-27T15:13:54;4.23;;;1.00;;
13897;SDS011;7019;50.766;4.474;2022-09-27T15:16:22;2.10;;;0.70;;
13897;SDS011;7019;50.766;4.474;2022-09-27T15:18:58;2.30;;;1.03;;
13897;SDS011;7019;50.766;4.474;2022-09-27T15:21:28;2.50;;;0.87;;
13897;SDS011;7019;50.766;4.474;2022-09-27T15:23:57;1.47;;;0.60;;
13897;SDS011;7019;50.766;4.474;2022-09-27T15:26:24;4.30;;;1.20;;
13897;SDS011;7019;50.766;4.474;2022-09-27T15:28:59;3.73;;;0.70;;
13897;SDS011;7019;50.766;4.474;2022-09-27T15:31:27;2.53;;;0.90;;
13897;SDS011;7019;50.766;4.474;2022-09-27T15:33:55;3.73;;;1.07;;
13897;SDS011;7019;50.766;4.474;2022-09-27T15:39:17;2.87;;;1.03;;
13897;SDS011;7019;50.766;4.474;2022-09-27T15:41:59;3.17;;;0.73;;
13897;SDS011;7019;50.766;4.474;2022-09-27T15:47:38;2.70;;;0.90;;
13897;SDS011;7019;50.766;4.474;2022-09-27T15:50:33;5.23;;;0.80;;
13897;SDS011;7019;50.766;4.474;2022-09-27T15:53:03;2.07;;;0.80;;
13897;SDS011;7019;50.766;4.474;2022-09-27T15:55:31;3.53;;;0.80;;
13897;SDS011;7019;50.766;4.474;2022-09-27T15:58:02;5.67;;;1.23;;
13897;SDS011;7019;50.766;4.474;2022-09-27T16:00:32;4.07;;;1.70;;
13897;SDS011;7019;50.766;4.474;2022-09-27T16:03:01;5.77;;;1.50;;
13897;SDS011;7019;50.766;4.474;2022-09-27T16:05:28;4.00;;;1.00;;